Time;durP1;ratioP1;P1;durP2;ratioP2;P2;SDS_P1;SDS_P2;PMS_P1;PMS_P2;Temp;Humidity;BMP_temperature;BMP_pressure;BME280_temperature;BME280_humidity;BME280_pressure;Samples;Min_cycle;Max_cycle;Signal;HPM_P1;HPM_P2
2022/04/17 00:00:12;;;;;;;6.95;3.25;;;8.10;44.20;;;;;;4983215;28;20107;-60
2022/04/17 00:02:38;;;;;;;4.15;2.65;;;8.10;44.00;;;;;;4984631;28;20030;-59
2022/04/17 00:05:06;;;;;;;7.60;4.18;;;8.10;43.90;;;;;;4979200;28;20027;-59
2022/04/17 00:07:32;;;;;;;6.32;3.53;;;8.00;44.00;;;;;;4983026;28;20027;-59
2022/04/17 00:09:58;;;;;;;7.10;3.35;;;8.00;44.00;;;;;;4983483;28;20027;-59
2022/04/17 00:12:25;;;;;;;5.05;2.85;;;8.00;45.10;;;;;;4989003;28;20090;-59
2022/04/17 00:14:51;;;;;;;5.80;2.90;;;8.00;44.40;;;;;;4983280;28;20027;-59
2022/04/17 00:17:18;;;;;;;4.95;2.83;;;7.90;44.30;;;;;;4984959;28;20035;-60
2022/04/17 00:19:43;;;;;;;6.32;3.00;;;7.90;44.30;;;;;;4971079;28;20030;-59
2022/04/17 00:22:09;;;;;;;5.82;2.85;;;7.90;44.50;;;;;;4983618;28;20031;-59
2022/04/17 00:24:35;;;;;;;4.70;2.80;;;7.90;44.40;;;;;;4987632;28;20039;-59
2022/04/17 00:27:00;;;;;;;3.70;2.80;;;7.90;44.50;;;;;;4851483;28;20027;-61
2022/04/17 00:29:27;;;;;;;5.22;2.83;;;7.80;44.50;;;;;;4985011;28;20051;-60
2022/04/17 00:31:54;;;;;;;6.68;3.00;;;7.80;44.60;;;;;;4982123;28;20062;-59
2022/04/17 00:34:19;;;;;;;6.40;3.00;;;7.80;44.80;;;;;;4985084;28;20027;-60
2022/04/17 00:36:45;;;;;;;7.93;3.53;;;7.80;44.70;;;;;;4990271;28;20077;-60
2022/04/17 00:39:12;;;;;;;4.18;2.80;;;7.80;44.70;;;;;;4987022;28;20477;-61
2022/04/17 00:41:38;;;;;;;5.80;2.97;;;7.70;45.00;;;;;;4988705;28;20031;-58
2022/04/17 00:44:11;;;;;;;3.97;3.00;;;7.70;45.00;;;;;;4991990;28;20086;-59
2022/04/17 00:46:38;;;;;;;5.28;3.38;;;7.70;45.30;;;;;;4992581;28;20048;-59
2022/04/17 00:49:03;;;;;;;11.45;3.28;;;7.70;45.10;;;;;;4990475;28;20035;-59
2022/04/17 00:51:30;;;;;;;5.38;3.25;;;7.60;45.10;;;;;;4991321;28;20027;-59
2022/04/17 00:53:57;;;;;;;3.75;2.78;;;7.60;45.50;;;;;;4983674;28;20034;-58
2022/04/17 00:56:25;;;;;;;7.18;2.83;;;7.60;45.30;;;;;;4991200;28;20058;-59
2022/04/17 00:58:51;;;;;;;4.60;2.75;;;7.50;45.40;;;;;;4984482;28;20050;-60
2022/04/17 01:01:17;;;;;;;5.57;3.35;;;7.50;45.40;;;;;;4989002;28;20031;-60
2022/04/17 01:03:43;;;;;;;5.90;3.10;;;7.50;45.50;;;;;;4984497;28;20038;-59
2022/04/17 01:06:09;;;;;;;6.40;3.20;;;7.50;45.60;;;;;;4966000;28;20911;-60
2022/04/17 01:08:40;;;;;;;5.93;3.30;;;7.40;45.50;;;;;;4981310;28;20039;-59
2022/04/17 01:11:07;;;;;;;6.05;3.15;;;7.40;45.70;;;;;;4984968;28;20109;-60
2022/04/17 01:13:33;;;;;;;7.43;3.45;;;7.40;46.30;;;;;;4987087;28;20027;-59
2022/04/17 01:16:03;;;;;;;6.60;3.63;;;7.30;45.90;;;;;;4987932;28;20023;-60
2022/04/17 01:18:29;;;;;;;4.60;2.80;;;7.30;46.10;;;;;;4984714;28;20037;-59
2022/04/17 01:20:54;;;;;;;5.22;3.00;;;7.30;46.00;;;;;;4985186;28;20082;-59
2022/04/17 01:28:48;;;;;;;3.20;2.30;;;7.20;46.00;;;;;;4984872;28;20062;-60
2022/04/17 01:31:14;;;;;;;3.85;2.47;;;7.10;45.90;;;;;;4989609;28;20035;-59
2022/04/17 01:33:40;;;;;;;5.35;3.20;;;7.00;46.60;;;;;;4987843;28;20034;-60
2022/04/17 01:36:05;;;;;;;4.28;3.28;;;7.00;46.20;;;;;;4980852;28;20034;-58
2022/04/17 01:38:31;;;;;;;5.68;3.15;;;6.90;46.30;;;;;;4984396;28;20063;-59
2022/04/17 01:40:56;;;;;;;5.90;3.13;;;6.80;47.00;;;;;;4984734;28;20043;-59
2022/04/17 01:43:22;;;;;;;4.35;2.88;;;6.80;46.60;;;;;;4982475;28;20037;-58
2022/04/17 01:45:48;;;;;;;4.63;2.92;;;6.70;46.80;;;;;;4983529;28;20442;-60
2022/04/17 01:48:13;;;;;;;4.32;2.85;;;6.70;46.90;;;;;;4988464;28;20031;-59
2022/04/17 01:50:39;;;;;;;6.25;3.00;;;6.60;47.00;;;;;;4985815;28;20031;-58
2022/04/17 01:53:05;;;;;;;5.40;3.35;;;6.50;47.10;;;;;;4984537;28;20066;-60
2022/04/17 01:55:30;;;;;;;4.82;3.35;;;6.50;47.20;;;;;;4993118;28;20039;-60
2022/04/17 01:57:57;;;;;;;5.80;3.25;;;6.50;47.60;;;;;;4983712;28;20027;-59
2022/04/17 02:00:24;;;;;;;5.35;3.28;;;6.40;47.70;;;;;;4989092;28;20054;-59
2022/04/17 02:02:49;;;;;;;6.20;3.28;;;6.40;47.80;;;;;;4991344;28;20481;-60
2022/04/17 02:05:15;;;;;;;9.38;3.42;;;6.40;47.90;;;;;;4995159;28;20063;-58
2022/04/17 02:07:41;;;;;;;8.95;3.80;;;6.30;48.00;;;;;;4988707;28;20046;-60
2022/04/17 02:10:07;;;;;;;8.15;3.58;;;6.30;48.10;;;;;;4986011;28;20118;-58
2022/04/17 02:12:33;;;;;;;6.05;3.47;;;6.20;48.20;;;;;;4986330;28;20047;-58
2022/04/17 02:14:59;;;;;;;7.15;3.55;;;6.20;48.30;;;;;;4983837;28;20023;-60
2022/04/17 02:17:25;;;;;;;7.93;3.97;;;6.10;48.30;;;;;;4982921;28;20054;-58
2022/04/17 02:19:51;;;;;;;6.88;3.13;;;6.00;48.20;;;;;;4981868;28;20031;-58
2022/04/17 02:22:17;;;;;;;6.55;3.45;;;6.00;48.50;;;;;;4984829;28;20019;-59
2022/04/17 02:24:43;;;;;;;8.57;3.95;;;5.90;48.50;;;;;;4978096;28;20019;-59
2022/04/17 02:27:08;;;;;;;7.30;3.42;;;5.90;48.60;;;;;;4991784;28;20307;-58
2022/04/17 02:29:34;;;;;;;4.60;3.17;;;5.80;48.70;;;;;;4984777;28;20173;-59
2022/04/17 02:32:00;;;;;;;6.53;3.67;;;5.80;48.80;;;;;;4985763;28;20030;-60
2022/04/17 02:34:25;;;;;;;6.80;3.67;;;5.70;48.90;;;;;;4982130;28;20023;-58
2022/04/17 02:36:53;;;;;;;10.57;3.58;;;5.70;49.00;;;;;;4980754;28;20037;-58
2022/04/17 02:39:18;;;;;;;7.45;4.05;;;5.70;49.10;;;;;;4982073;28;20022;-60
2022/04/17 02:41:44;;;;;;;9.25;4.20;;;5.60;49.20;;;;;;4987940;28;20032;-58
2022/04/17 02:44:10;;;;;;;6.60;3.95;;;5.60;49.20;;;;;;4985378;28;20465;-58
2022/04/17 02:49:20;;;;;;;5.90;3.92;;;5.50;49.30;;;;;;4979974;28;20040;-58
2022/04/17 02:51:46;;;;;;;6.78;3.72;;;5.40;49.80;;;;;;4986880;28;20058;-60
2022/04/17 02:54:11;;;;;;;6.15;3.50;;;5.40;49.30;;;;;;4981115;28;20093;-58
2022/04/17 02:56:37;;;;;;;8.48;3.70;;;5.30;49.50;;;;;;4980961;28;20046;-60
2022/04/17 02:59:03;;;;;;;5.93;3.45;;;5.30;49.80;;;;;;4980086;28;20188;-59
2022/04/17 03:06:57;;;;;;;6.55;3.50;;;5.20;50.60;;;;;;4981670;28;20106;-58
2022/04/17 03:09:23;;;;;;;6.38;3.78;;;5.10;50.50;;;;;;4985384;28;20031;-58
2022/04/17 03:11:48;;;;;;;5.18;3.05;;;5.10;50.00;;;;;;4977659;28;20050;-58
2022/04/17 03:14:14;;;;;;;6.57;3.42;;;5.00;50.10;;;;;;4986379;28;20041;-60
2022/04/17 03:16:39;;;;;;;6.35;3.38;;;5.00;50.20;;;;;;4988362;28;20030;-60
2022/04/17 03:19:06;;;;;;;6.85;3.65;;;5.00;50.40;;;;;;4985949;28;20058;-58
2022/04/17 03:21:32;;;;;;;8.55;3.70;;;4.90;50.30;;;;;;4983215;28;20122;-58
2022/04/17 03:23:58;;;;;;;8.93;3.38;;;4.90;50.40;;;;;;4983683;28;20034;-62
2022/04/17 03:26:24;;;;;;;6.93;3.85;;;4.90;50.60;;;;;;4980216;28;20115;-59
2022/04/17 03:28:49;;;;;;;5.88;3.85;;;4.80;50.70;;;;;;4980187;28;20034;-58
2022/04/17 03:31:15;;;;;;;4.55;3.35;;;4.80;50.80;;;;;;4988909;28;20038;-60
2022/04/17 03:33:40;;;;;;;7.53;3.88;;;4.80;50.90;;;;;;4983592;28;20031;-58
2022/04/17 03:36:07;;;;;;;5.75;3.65;;;4.80;50.80;;;;;;4979322;28;20029;-58
2022/04/17 03:38:32;;;;;;;5.80;3.60;;;4.70;50.70;;;;;;4988792;28;20030;-59
2022/04/17 03:40:59;;;;;;;11.27;4.82;;;4.70;51.00;;;;;;4979380;28;20033;-58
2022/04/17 03:43:25;;;;;;;9.65;4.68;;;4.70;51.10;;;;;;4980742;28;20643;-60
2022/04/17 03:45:51;;;;;;;5.75;3.97;;;4.70;51.20;;;;;;4983627;28;20438;-58
2022/04/17 03:48:18;;;;;;;11.75;4.40;;;4.60;51.20;;;;;;4991381;28;20023;-59
2022/04/17 03:50:44;;;;;;;7.28;4.22;;;4.60;51.30;;;;;;4982227;28;20027;-59
2022/04/17 03:53:09;;;;;;;8.13;4.07;;;4.60;51.30;;;;;;4981906;28;20039;-60
2022/04/17 03:55:36;;;;;;;10.90;4.10;;;4.60;51.30;;;;;;4984125;28;20077;-58
2022/04/17 03:58:02;;;;;;;5.47;3.67;;;4.50;51.20;;;;;;4988457;28;20035;-58
2022/04/17 04:00:28;;;;;;;4.78;3.30;;;4.50;51.30;;;;;;4984599;28;20090;-59
2022/04/17 04:02:53;;;;;;;5.68;3.83;;;4.50;51.40;;;;;;4965244;28;20086;-60
2022/04/17 04:05:22;;;;;;;5.43;3.33;;;4.40;51.20;;;;;;4984048;28;20045;-58
2022/04/17 04:07:47;;;;;;;5.70;3.47;;;4.40;51.40;;;;;;4984104;28;20402;-60
2022/04/17 04:10:13;;;;;;;5.32;3.50;;;4.40;51.30;;;;;;4981969;28;20038;-60
2022/04/17 04:12:39;;;;;;;8.35;3.85;;;4.60;51.40;;;;;;4981246;28;20055;-60
2022/04/17 04:15:06;;;;;;;6.82;4.32;;;4.40;51.40;;;;;;4981116;28;20034;-60
2022/04/17 04:17:33;;;;;;;8.25;4.65;;;4.40;51.50;;;;;;4989905;28;20358;-60
2022/04/17 04:19:59;;;;;;;5.32;3.58;;;4.30;51.40;;;;;;4983734;28;20407;-59
2022/04/17 04:22:25;;;;;;;8.93;3.92;;;4.30;51.60;;;;;;4987045;28;20027;-58
2022/04/17 04:24:51;;;;;;;6.22;3.83;;;4.30;51.80;;;;;;4986681;28;20035;-59
2022/04/17 04:30:01;;;;;;;5.57;3.90;;;4.30;52.00;;;;;;4987329;28;20045;-59
2022/04/17 04:32:27;;;;;;;6.05;3.05;;;4.30;51.90;;;;;;4982562;28;20039;-59
2022/04/17 04:34:57;;;;;;;4.55;3.50;;;4.20;52.00;;;;;;4990311;28;20031;-59
2022/04/17 04:37:23;;;;;;;5.78;3.70;;;4.20;52.30;;;;;;4985162;28;20035;-59
2022/04/17 04:39:48;;;;;;;6.47;4.15;;;4.20;52.10;;;;;;4989676;28;20030;-58
2022/04/17 04:42:14;;;;;;;8.95;4.75;;;4.20;52.10;;;;;;4966615;28;20027;-60
2022/04/17 04:44:40;;;;;;;8.60;4.35;;;4.20;52.10;;;;;;4994854;28;20023;-60
2022/04/17 04:47:05;;;;;;;4.97;3.75;;;4.10;52.00;;;;;;4986108;28;20118;-60
2022/04/17 04:49:31;;;;;;;9.70;4.00;;;4.10;52.10;;;;;;4990400;28;20034;-60
2022/04/17 04:52:01;;;;;;;5.47;3.67;;;4.10;52.20;;;;;;4965381;28;20082;-59
2022/04/17 04:54:28;;;;;;;7.82;4.15;;;4.10;52.50;;;;;;4986729;28;20115;-59
2022/04/17 04:56:54;;;;;;;9.07;3.10;;;4.00;52.40;;;;;;4987224;28;20042;-60
2022/04/17 04:59:20;;;;;;;4.93;3.75;;;4.10;52.50;;;;;;4990285;28;20043;-60
2022/04/17 05:01:51;;;;;;;5.05;3.17;;;4.10;52.50;;;;;;4985047;28;20091;-58
2022/04/17 05:04:17;;;;;;;6.47;3.42;;;4.10;52.60;;;;;;4981279;28;20030;-59
2022/04/17 05:06:44;;;;;;;5.97;3.47;;;4.10;52.70;;;;;;4992915;28;20065;-58
2022/04/17 05:09:10;;;;;;;5.32;3.75;;;4.10;52.90;;;;;;4985457;28;20026;-59
2022/04/17 05:11:37;;;;;;;7.55;3.40;;;4.50;53.20;;;;;;4984681;28;20041;-58
2022/04/17 05:14:04;;;;;;;6.53;4.03;;;4.30;53.30;;;;;;4988895;28;20371;-60
2022/04/17 05:16:30;;;;;;;4.13;3.33;;;4.30;53.10;;;;;;4963773;28;20046;-59
2022/04/17 05:19:19;;;;;;;5.30;3.58;;;4.40;53.30;;;;;;4982798;28;20019;-60
2022/04/17 05:21:41;;;;;;;4.88;2.60;;;4.50;53.30;;;;;;4979173;28;20038;-59
2022/04/17 05:24:07;;;;;;;4.47;2.80;;;4.60;52.90;;;;;;4978999;28;20030;-59
2022/04/17 05:26:32;;;;;;;3.63;2.70;;;4.80;53.10;;;;;;4979798;28;20125;-60
2022/04/17 05:29:02;;;;;;;10.23;2.50;;;5.10;53.10;;;;;;4986625;28;20057;-59
2022/04/17 05:31:28;;;;;;;5.05;2.45;;;4.90;52.80;;;;;;4984704;28;20027;-58
2022/04/17 05:33:53;;;;;;;4.43;2.92;;;5.10;52.60;;;;;;4983537;28;20050;-59
2022/04/17 05:36:19;;;;;;;4.80;2.90;;;5.20;52.70;;;;;;4982494;28;20528;-59
2022/04/17 05:38:45;;;;;;;3.30;2.78;;;5.40;52.60;;;;;;4986518;28;20034;-59
2022/04/17 05:41:10;;;;;;;3.83;2.40;;;5.50;52.70;;;;;;4985077;28;20031;-59
2022/04/17 05:43:38;;;;;;;3.75;2.30;;;5.70;52.50;;;;;;4982370;28;20042;-58
2022/04/17 05:46:04;;;;;;;4.50;2.35;;;5.90;52.10;;;;;;4992791;28;20501;-60
2022/04/17 05:48:29;;;;;;;4.80;2.50;;;6.00;51.90;;;;;;4983425;28;20075;-59
2022/04/17 05:50:55;;;;;;;4.45;2.35;;;6.20;51.90;;;;;;4986815;28;20023;-59
2022/04/17 05:53:21;;;;;;;2.55;2.13;;;6.40;51.80;;;;;;4982296;28;20061;-58
2022/04/17 05:55:48;;;;;;;4.82;2.00;;;6.50;51.30;;;;;;4983515;28;20050;-60
2022/04/17 05:58:13;;;;;;;3.55;2.00;;;6.60;50.90;;;;;;4982364;28;20034;-59
2022/04/17 06:00:42;;;;;;;4.03;2.10;;;6.70;50.70;;;;;;4987445;28;20043;-59
2022/04/17 06:03:08;;;;;;;3.38;2.17;;;7.00;50.60;;;;;;4977310;28;20025;-60
2022/04/17 06:05:34;;;;;;;2.60;2.00;;;7.00;50.50;;;;;;4979968;28;20027;-59
2022/04/17 06:07:59;;;;;;;3.58;1.98;;;7.10;50.30;;;;;;4981263;28;20090;-58
2022/04/17 06:10:25;;;;;;;2.15;1.85;;;7.20;50.00;;;;;;4990599;28;20033;-58
2022/04/17 06:12:50;;;;;;;4.75;2.10;;;7.40;50.00;;;;;;4987695;28;20045;-60
2022/04/17 06:15:16;;;;;;;2.90;1.80;;;7.50;49.70;;;;;;4983641;28;20031;-58
2022/04/17 06:17:43;;;;;;;4.03;2.10;;;7.70;49.60;;;;;;4983299;28;20572;-60
2022/04/17 06:20:11;;;;;;;3.97;2.00;;;7.80;49.50;;;;;;4988247;28;20034;-60
2022/04/17 06:22:38;;;;;;;4.60;1.90;;;7.90;49.20;;;;;;4985681;28;20027;-60
2022/04/17 06:25:05;;;;;;;2.30;1.90;;;8.10;49.10;;;;;;4984709;28;20486;-59
2022/04/17 06:27:45;;;;;;;3.90;2.00;;;8.30;48.80;;;;;;4989052;28;20030;-60
2022/04/17 06:30:16;;;;;;;3.45;1.70;;;8.40;48.50;;;;;;4984955;28;20026;-59
2022/04/17 06:32:42;;;;;;;4.43;2.10;;;8.50;48.30;;;;;;4982868;28;20082;-59
2022/04/17 06:35:09;;;;;;;4.10;1.85;;;8.60;48.20;;;;;;4981376;28;20026;-58
2022/04/17 06:38:10;;;;;;;5.07;1.60;;;8.70;48.00;;;;;;4979649;28;20022;-60
2022/04/17 06:40:36;;;;;;;2.28;1.52;;;8.90;47.80;;;;;;4937039;29;20171;-58
2022/04/17 06:43:08;;;;;;;5.75;1.85;;;9.00;47.80;;;;;;4929389;29;20220;-58
2022/04/17 06:45:35;;;;;;;2.45;2.00;;;9.10;47.70;;;;;;4936800;29;20083;-59
2022/04/17 06:48:21;;;;;;;5.97;2.20;;;9.30;47.60;;;;;;4939452;29;20059;-59
2022/04/17 06:50:49;;;;;;;3.88;2.10;;;9.40;47.60;;;;;;4937725;29;20067;-59
2022/04/17 06:53:15;;;;;;;3.97;2.28;;;9.60;47.50;;;;;;4938925;29;20051;-60
2022/04/17 06:55:41;;;;;;;2.28;1.63;;;9.70;47.40;;;;;;4937892;29;20038;-60
2022/04/17 06:58:08;;;;;;;3.65;1.65;;;9.80;47.40;;;;;;4938108;29;20031;-60
2022/04/17 07:00:35;;;;;;;1.95;1.42;;;10.00;47.30;;;;;;4939642;29;20074;-60
2022/04/17 07:03:00;;;;;;;3.30;1.65;;;10.10;47.10;;;;;;4936792;29;20059;-61
2022/04/17 07:05:26;;;;;;;2.83;1.67;;;10.30;47.10;;;;;;4937362;29;20114;-59
2022/04/17 07:08:00;;;;;;;3.45;1.35;;;10.40;47.00;;;;;;4936296;29;20046;-60
2022/04/17 07:10:27;;;;;;;3.10;1.80;;;10.60;46.50;;;;;;4936818;29;20050;-58
2022/04/17 07:12:54;;;;;;;3.55;1.60;;;10.70;46.10;;;;;;4938577;29;20457;-59
2022/04/17 07:15:19;;;;;;;2.35;1.48;;;10.90;46.10;;;;;;4944397;28;20351;-60
2022/04/17 07:17:46;;;;;;;2.50;1.73;;;11.00;46.00;;;;;;4986539;28;20031;-60
2022/04/17 07:20:12;;;;;;;3.53;1.50;;;11.10;45.70;;;;;;4979943;28;20639;-60
2022/04/17 07:22:40;;;;;;;3.95;1.67;;;11.20;45.60;;;;;;4982789;28;20031;-59
2022/04/17 07:25:15;;;;;;;3.45;1.65;;;11.30;45.60;;;;;;4974085;28;20023;-59
2022/04/17 07:27:50;;;;;;;3.40;1.52;;;11.40;44.90;;;;;;4984955;28;20032;-61
2022/04/17 07:30:19;;;;;;;;;;;11.60;45.00;;;;;;4982174;28;20031;-60
2022/04/17 07:32:48;;;;;;;3.47;1.33;;;11.70;44.70;;;;;;4977622;28;19918;-61
2022/04/17 07:35:15;;;;;;;2.75;1.40;;;11.70;44.50;;;;;;4982365;28;20034;-60
2022/04/17 07:37:46;;;;;;;3.20;1.48;;;11.80;44.30;;;;;;4977906;28;20103;-59
2022/04/17 07:40:15;;;;;;;2.58;1.70;;;11.80;43.80;;;;;;4981232;28;20031;-61
2022/04/17 07:42:44;;;;;;;5.13;1.73;;;11.90;43.80;;;;;;4982787;28;20038;-60
2022/04/17 07:45:11;;;;;;;2.70;1.52;;;11.90;43.60;;;;;;4979723;28;20062;-60
2022/04/17 07:47:37;;;;;;;2.08;1.33;;;12.00;43.70;;;;;;4989796;28;20074;-60
2022/04/17 07:50:05;;;;;;;2.75;1.60;;;12.00;43.50;;;;;;4982897;28;20035;-60
2022/04/17 07:52:31;;;;;;;3.33;1.67;;;12.10;43.40;;;;;;4981633;28;20054;-61
2022/04/17 07:54:56;;;;;;;3.83;1.77;;;12.20;43.30;;;;;;4982107;28;20029;-61
2022/04/17 07:57:22;;;;;;;4.35;1.52;;;12.20;43.10;;;;;;4963720;28;20142;-59
2022/04/17 07:59:50;;;;;;;1.80;1.40;;;12.30;42.90;;;;;;4942825;28;1147791;-61
2022/04/17 08:02:22;;;;;;;2.80;1.60;;;12.40;42.80;;;;;;4982378;28;20034;-60
2022/04/17 08:04:51;;;;;;;2.17;1.42;;;12.40;42.40;;;;;;4982616;28;20110;-60
2022/04/17 08:07:21;;;;;;;3.47;1.33;;;12.50;41.70;;;;;;4988324;28;20095;-61
2022/04/17 08:09:46;;;;;;;2.90;1.60;;;12.50;42.00;;;;;;4986576;28;20035;-59
2022/04/17 08:12:12;;;;;;;3.00;1.85;;;12.60;41.70;;;;;;4986016;28;20219;-60
2022/04/17 08:14:38;;;;;;;2.30;1.42;;;12.60;42.00;;;;;;4982904;28;20034;-61
2022/04/17 08:17:04;;;;;;;3.42;1.65;;;12.60;41.80;;;;;;4989703;28;20031;-60
2022/04/17 08:19:31;;;;;;;2.10;1.40;;;12.70;42.20;;;;;;4986651;28;20041;-60
2022/04/17 08:22:00;;;;;;;2.85;1.58;;;12.80;41.20;;;;;;4986798;28;20027;-60
2022/04/17 08:24:26;;;;;;;3.70;1.77;;;12.80;41.60;;;;;;4982836;28;20034;-60
2022/04/17 08:26:53;;;;;;;2.60;1.58;;;12.90;41.50;;;;;;4914720;28;20037;-61
2022/04/17 08:29:19;;;;;;;2.83;1.55;;;13.00;41.30;;;;;;4980581;28;20027;-61
2022/04/17 08:31:45;;;;;;;3.55;1.60;;;13.00;41.00;;;;;;4980791;28;20073;-60
2022/04/17 08:34:11;;;;;;;3.53;1.85;;;13.10;41.10;;;;;;4987009;28;20031;-60
2022/04/17 08:36:36;;;;;;;1.88;1.42;;;13.20;40.60;;;;;;4986691;28;20070;-59
2022/04/17 08:39:02;;;;;;;3.42;1.67;;;13.30;40.80;;;;;;4981378;28;20149;-60
2022/04/17 08:41:31;;;;;;;1.95;1.60;;;13.40;40.60;;;;;;4979004;28;20051;-59
2022/04/17 08:43:57;;;;;;;3.17;1.80;;;13.40;40.20;;;;;;4984501;28;20030;-60
2022/04/17 08:46:23;;;;;;;2.63;1.58;;;13.50;40.20;;;;;;4992952;28;20118;-60
2022/04/17 08:48:51;;;;;;;6.00;1.92;;;13.60;40.40;;;;;;4977818;28;20030;-60
2022/04/17 08:51:17;;;;;;;2.25;1.42;;;13.60;39.50;;;;;;4980295;28;20964;-61
2022/04/17 08:53:45;;;;;;;2.22;1.73;;;13.60;40.20;;;;;;4985359;28;20490;-60
2022/04/17 08:56:11;;;;;;;3.15;1.75;;;13.80;40.30;;;;;;4989161;28;20026;-59
2022/04/17 08:58:36;;;;;;;2.42;1.70;;;13.80;39.90;;;;;;4988561;28;20085;-59
2022/04/17 09:01:03;;;;;;;2.78;1.65;;;13.90;39.90;;;;;;4989472;28;20031;-59
2022/04/17 09:03:29;;;;;;;2.03;1.55;;;14.10;39.80;;;;;;4994475;28;20037;-59
2022/04/17 09:05:56;;;;;;;6.53;1.60;;;14.10;39.50;;;;;;4990497;28;20037;-59
2022/04/17 09:08:21;;;;;;;6.78;1.83;;;14.20;39.10;;;;;;4987044;28;20023;-59
2022/04/17 09:10:58;;;;;;;4.97;1.70;;;14.20;38.80;;;;;;4987873;28;20096;-60
2022/04/17 09:13:34;;;;;;;5.28;1.80;;;14.30;38.40;;;;;;4985077;28;20042;-61
2022/04/17 09:16:04;;;;;;;4.63;1.73;;;14.40;39.00;;;;;;4981888;28;20031;-59
2022/04/17 09:18:31;;;;;;;2.22;1.30;;;14.40;39.10;;;;;;4989232;28;20297;-60
2022/04/17 09:20:58;;;;;;;4.55;1.67;;;14.50;38.90;;;;;;4990984;28;20030;-60
2022/04/17 09:23:33;;;;;;;2.92;2.00;;;14.50;38.50;;;;;;4990874;28;20032;-60
2022/04/17 09:25:59;;;;;;;3.58;1.50;;;14.60;38.20;;;;;;4983316;28;20034;-60
2022/04/17 09:28:31;;;;;;;3.10;1.70;;;14.60;38.70;;;;;;4994730;28;20089;-61
2022/04/17 09:30:59;;;;;;;3.17;1.70;;;14.70;37.90;;;;;;4986763;28;20035;-60
2022/04/17 09:33:36;;;;;;;2.92;1.65;;;14.70;38.30;;;;;;4981969;28;20097;-59
2022/04/17 09:36:01;;;;;;;2.30;1.50;;;14.80;38.20;;;;;;4981087;28;20026;-59
2022/04/17 09:38:32;;;;;;;3.53;1.40;;;14.90;38.60;;;;;;4986224;28;20098;-60
2022/04/17 09:41:09;;;;;;;2.47;1.92;;;14.90;38.40;;;;;;4986515;28;20155;-60
2022/04/17 09:43:35;;;;;;;2.53;1.48;;;15.10;38.20;;;;;;4987495;28;20031;-60
2022/04/17 09:46:06;;;;;;;1.55;1.45;;;15.20;38.10;;;;;;4989638;28;20027;-60
2022/04/17 09:48:39;;;;;;;2.05;1.25;;;15.30;37.60;;;;;;4987541;28;20545;-60
2022/04/17 09:51:24;;;;;;;1.83;1.50;;;15.40;36.90;;;;;;4989525;28;20022;-60
2022/04/17 09:54:05;;;;;;;2.30;1.52;;;15.50;35.30;;;;;;4986775;28;20077;-61
2022/04/17 09:56:33;;;;;;;1.95;1.50;;;15.60;36.50;;;;;;4988840;28;20138;-59
2022/04/17 09:59:00;;;;;;;2.17;1.27;;;15.60;36.90;;;;;;4984159;28;20046;-60
2022/04/17 10:01:27;;;;;;;2.25;1.40;;;15.70;36.20;;;;;;4987442;28;20030;-60
2022/04/17 10:03:55;;;;;;;4.22;2.30;;;15.80;37.00;;;;;;4973056;28;20030;-60
2022/04/17 10:06:23;;;;;;;2.60;1.73;;;15.90;36.60;;;;;;4985914;28;20035;-60
2022/04/17 10:08:50;;;;;;;4.85;1.38;;;15.90;36.60;;;;;;4982659;28;20094;-60
2022/04/17 10:11:18;;;;;;;6.68;1.67;;;16.00;36.10;;;;;;4987137;28;20113;-60
2022/04/17 10:13:45;;;;;;;3.83;1.30;;;16.00;35.10;;;;;;4978799;28;20466;-61
2022/04/17 10:16:12;;;;;;;2.35;1.50;;;16.00;35.60;;;;;;4984209;28;20018;-61
2022/04/17 10:18:41;;;;;;;4.82;1.52;;;16.10;34.80;;;;;;4990320;28;20023;-59
2022/04/17 10:21:07;;;;;;;7.07;1.70;;;16.10;35.50;;;;;;4987260;28;20264;-60
2022/04/17 10:23:37;;;;;;;2.67;1.45;;;16.20;34.80;;;;;;4981850;28;20031;-60
2022/04/17 10:26:04;;;;;;;3.53;1.60;;;16.30;35.00;;;;;;4928882;28;20034;-60
2022/04/17 10:28:36;;;;;;;4.05;1.40;;;16.30;34.90;;;;;;4985009;28;20035;-60
2022/04/17 10:31:15;;;;;;;2.15;1.33;;;16.40;34.60;;;;;;4987456;28;20101;-60
2022/04/17 10:33:49;;;;;;;3.67;1.52;;;16.40;34.30;;;;;;4986735;28;20058;-60
2022/04/17 10:36:44;;;;;;;2.90;1.60;;;16.40;34.80;;;;;;4985268;28;20027;-60
2022/04/17 10:39:36;;;;;;;2.83;1.35;;;16.50;34.70;;;;;;4982923;28;20031;-60
2022/04/17 10:42:02;;;;;;;2.72;1.55;;;16.60;35.20;;;;;;4977485;28;20043;-60
2022/04/17 10:44:31;;;;;;;2.72;1.30;;;16.70;35.60;;;;;;4966587;28;20050;-61
2022/04/17 10:46:56;;;;;;;2.70;1.35;;;16.80;34.80;;;;;;4995742;28;20103;-60
2022/04/17 10:49:27;;;;;;;3.72;1.80;;;16.80;34.50;;;;;;4981184;28;20048;-60
2022/04/17 10:51:57;;;;;;;1.65;1.40;;;16.90;34.30;;;;;;4992571;28;20047;-61
2022/04/17 10:54:24;;;;;;;2.53;1.58;;;16.90;34.00;;;;;;4991679;28;20069;-60
2022/04/17 10:56:56;;;;;;;4.22;1.40;;;17.00;34.40;;;;;;4964621;28;20069;-60
2022/04/17 10:59:26;;;;;;;2.88;1.50;;;17.10;34.00;;;;;;4983785;28;20042;-60
2022/04/17 11:01:54;;;;;;;8.23;1.40;;;17.10;34.40;;;;;;4987290;28;20027;-60
2022/04/17 11:04:21;;;;;;;2.90;1.55;;;17.30;34.20;;;;;;4991751;28;20035;-60
2022/04/17 11:07:03;;;;;;;2.20;1.50;;;17.30;33.90;;;;;;4986512;28;20062;-60
2022/04/17 11:09:29;;;;;;;2.40;1.38;;;17.40;33.40;;;;;;4982883;28;20125;-60
2022/04/17 11:12:22;;;;;;;2.70;1.50;;;17.50;33.20;;;;;;4988713;28;20031;-60
2022/04/17 11:14:56;;;;;;;1.98;1.15;;;17.50;31.70;;;;;;4983024;28;20042;-62
2022/04/17 11:17:23;;;;;;;;;;;17.50;33.20;;;;;;4986873;28;20026;-60
2022/04/17 11:19:51;;;;;;;1.85;1.40;;;17.60;34.00;;;;;;4990795;28;20223;-60
2022/04/17 11:22:17;;;;;;;2.03;1.30;;;17.60;34.10;;;;;;4981066;28;20038;-60
2022/04/17 11:24:55;;;;;;;1.98;1.35;;;17.70;33.90;;;;;;4942066;28;20382;-60
2022/04/17 11:27:41;;;;;;;2.28;1.30;;;17.80;32.70;;;;;;4988538;28;20039;-62
2022/04/17 11:30:13;;;;;;;2.72;1.90;;;17.80;32.30;;;;;;4990044;28;20033;-60
2022/04/17 11:32:39;;;;;;;4.50;1.55;;;17.90;33.40;;;;;;4964793;28;20042;-60
2022/04/17 11:35:09;;;;;;;2.50;1.50;;;18.00;33.30;;;;;;4986475;28;20030;-59
2022/04/17 11:37:35;;;;;;;5.45;1.50;;;18.00;33.30;;;;;;4989624;28;20074;-60
2022/04/17 11:40:12;;;;;;;1.55;1.30;;;18.10;33.00;;;;;;4969011;28;20026;-59
2022/04/17 11:42:45;;;;;;;2.28;1.33;;;18.20;32.20;;;;;;4987254;28;20051;-60
2022/04/17 11:45:13;;;;;;;3.00;1.20;;;18.30;32.60;;;;;;4992381;28;20037;-61
2022/04/17 11:47:41;;;;;;;3.70;1.40;;;18.40;32.20;;;;;;4980685;28;20042;-60
2022/04/17 11:50:12;;;;;;;2.90;1.35;;;18.50;32.30;;;;;;4986853;28;20106;-60
2022/04/17 11:52:39;;;;;;;3.45;1.42;;;18.50;31.60;;;;;;4984844;28;20034;-60
2022/04/17 11:55:06;;;;;;;2.83;1.30;;;18.50;31.70;;;;;;4980492;28;20066;-60
2022/04/17 11:57:32;;;;;;;1.45;1.17;;;18.50;31.60;;;;;;4983565;28;20054;-60
2022/04/17 11:59:58;;;;;;;3.70;1.25;;;18.50;31.30;;;;;;4981119;28;20051;-60
2022/04/17 12:02:29;;;;;;;3.13;1.10;;;18.50;31.10;;;;;;4982222;28;20038;-60
2022/04/17 12:04:57;;;;;;;3.15;1.35;;;18.50;30.80;;;;;;4985653;28;20030;-59
2022/04/17 12:07:24;;;;;;;1.85;1.30;;;18.60;30.90;;;;;;4968361;28;20043;-62
2022/04/17 12:10:01;;;;;;;2.85;1.17;;;18.60;31.00;;;;;;4983193;28;20041;-60
2022/04/17 12:12:43;;;;;;;2.67;1.33;;;18.70;31.00;;;;;;4985449;28;20054;-61
2022/04/17 12:15:11;;;;;;;1.63;1.10;;;18.70;30.00;;;;;;4982393;28;20086;-61
2022/04/17 12:17:37;;;;;;;2.47;1.38;;;18.80;30.90;;;;;;4980237;28;20027;-60
2022/04/17 12:20:13;;;;;;;2.40;1.50;;;18.80;30.30;;;;;;4988693;28;20026;-61
2022/04/17 12:22:40;;;;;;;1.40;1.25;;;18.90;30.80;;;;;;4971074;28;20030;-60
2022/04/17 12:25:22;;;;;;;1.90;1.27;;;19.00;31.40;;;;;;4929731;28;20107;-60
2022/04/17 12:27:52;;;;;;;4.93;1.30;;;19.20;30.40;;;;;;4984376;28;20067;-61
2022/04/17 12:30:28;;;;;;;2.67;1.38;;;19.30;30.40;;;;;;4986035;28;20022;-60
2022/04/17 12:32:59;;;;;;;1.40;1.10;;;19.40;30.20;;;;;;4983099;28;20037;-60
2022/04/17 12:35:26;;;;;;;2.00;1.40;;;19.40;30.10;;;;;;4989753;28;20521;-60
2022/04/17 12:38:05;;;;;;;1.30;1.20;;;19.50;29.90;;;;;;4990615;28;20027;-60
2022/04/17 12:40:38;;;;;;;2.17;1.20;;;19.50;29.60;;;;;;4990972;28;20086;-60
2022/04/17 12:43:18;;;;;;;3.05;1.27;;;19.60;29.80;;;;;;4986971;28;20030;-61
2022/04/17 12:46:04;;;;;;;2.53;1.40;;;19.60;29.50;;;;;;4989792;28;20086;-60
2022/04/17 12:48:34;;;;;;;4.53;1.40;;;19.80;29.30;;;;;;4990281;28;20109;-60
2022/04/17 12:51:03;;;;;;;2.15;1.33;;;19.80;30.50;;;;;;4986432;28;20105;-61
2022/04/17 12:53:39;;;;;;;2.45;1.40;;;19.90;29.80;;;;;;4990267;28;20038;-60
2022/04/17 12:56:07;;;;;;;4.15;1.80;;;19.90;29.50;;;;;;4985808;28;20027;-60
2022/04/17 12:58:53;;;;;;;2.83;1.40;;;19.90;30.00;;;;;;4982538;28;20019;-60
2022/04/17 13:01:23;;;;;;;4.07;1.63;;;20.00;28.90;;;;;;4986412;28;20046;-61
2022/04/17 13:03:50;;;;;;;3.38;1.77;;;20.00;29.60;;;;;;4994517;28;20069;-60
2022/04/17 13:06:20;;;;;;;3.10;1.55;;;20.00;29.40;;;;;;4983656;28;20047;-61
2022/04/17 13:09:07;;;;;;;2.22;1.52;;;20.00;29.50;;;;;;4988361;28;20023;-60
2022/04/17 13:11:39;;;;;;;2.00;1.40;;;20.10;29.10;;;;;;4978040;28;20030;-61
2022/04/17 13:14:05;;;;;;;3.60;1.42;;;20.20;29.80;;;;;;4988067;28;20022;-60